sensor_id;sensor_type;location;lat;lon;timestamp;pressure;altitude;pressure_sealevel;temperature;humidity
79461;BME280;68929;42.666;23.324;2023-09-08T00:02:08;95093.31;;;19.94;nan
79461;BME280;68929;42.666;23.324;2023-09-08T00:04:34;95095.50;;;20.02;nan
79461;BME280;68929;42.666;23.324;2023-09-08T00:07:00;95056.50;;;19.84;nan
79461;BME280;68929;42.666;23.324;2023-09-08T00:09:25;95090.31;;;19.90;nan
79461;BME280;68929;42.666;23.324;2023-09-08T00:11:51;95079.03;;;19.88;nan
79461;BME280;68929;42.666;23.324;2023-09-08T00:14:17;95091.91;;;19.86;nan
79461;BME280;68929;42.666;23.324;2023-09-08T00:16:43;95074.63;;;19.62;nan
79461;BME280;68929;42.666;23.324;2023-09-08T00:19:09;95053.97;;;19.63;nan
79461;BME280;68929;42.666;23.324;2023-09-08T00:21:36;95084.34;;;19.78;nan
79461;BME280;68929;42.666;23.324;2023-09-08T00:24:01;95066.03;;;19.60;nan
79461;BME280;68929;42.666;23.324;2023-09-08T00:26:27;95084.31;;;19.68;nan
79461;BME280;68929;42.666;23.324;2023-09-08T00:28:52;95061.72;;;19.59;nan
79461;BME280;68929;42.666;23.324;2023-09-08T00:31:18;95045.56;;;19.49;nan
79461;BME280;68929;42.666;23.324;2023-09-08T00:33:43;95076.81;;;19.70;nan
79461;BME280;68929;42.666;23.324;2023-09-08T00:36:09;95088.13;;;19.77;nan
79461;BME280;68929;42.666;23.324;2023-09-08T00:38:35;95084.94;;;19.85;nan
79461;BME280;68929;42.666;23.324;2023-09-08T00:41:00;95059.88;;;19.65;nan
79461;BME280;68929;42.666;23.324;2023-09-08T00:43:26;95057.97;;;19.60;nan
79461;BME280;68929;42.666;23.324;2023-09-08T00:45:52;95053.88;;;19.53;nan
79461;BME280;68929;42.666;23.324;2023-09-08T00:48:19;95069.31;;;19.72;nan
79461;BME280;68929;42.666;23.324;2023-09-08T00:50:44;95068.22;;;19.68;nan
79461;BME280;68929;42.666;23.324;2023-09-08T00:53:10;95048.31;;;19.59;nan
79461;BME280;68929;42.666;23.324;2023-09-08T00:55:35;95045.97;;;19.73;nan
79461;BME280;68929;42.666;23.324;2023-09-08T00:58:02;95050.25;;;19.74;nan
79461;BME280;68929;42.666;23.324;2023-09-08T01:00:27;95043.84;;;19.80;nan
79461;BME280;68929;42.666;23.324;2023-09-08T01:02:53;95071.53;;;19.90;nan
79461;BME280;68929;42.666;23.324;2023-09-08T01:05:19;95060.75;;;19.75;nan
79461;BME280;68929;42.666;23.324;2023-09-08T01:07:46;95071.78;;;19.84;nan
79461;BME280;68929;42.666;23.324;2023-09-08T01:10:13;95054.31;;;19.76;nan
79461;BME280;68929;42.666;23.324;2023-09-08T01:12:39;95070.50;;;19.97;nan
79461;BME280;68929;42.666;23.324;2023-09-08T01:15:05;95047.63;;;19.79;nan
79461;BME280;68929;42.666;23.324;2023-09-08T01:17:31;95061.94;;;20.00;nan
79461;BME280;68929;42.666;23.324;2023-09-08T01:19:57;95070.22;;;19.93;nan
79461;BME280;68929;42.666;23.324;2023-09-08T01:25:25;95066.78;;;20.08;nan
79461;BME280;68929;42.666;23.324;2023-09-08T01:27:53;95037.75;;;19.89;nan
79461;BME280;68929;42.666;23.324;2023-09-08T01:30:19;95074.06;;;20.17;nan
79461;BME280;68929;42.666;23.324;2023-09-08T01:32:46;95051.75;;;20.02;nan
79461;BME280;68929;42.666;23.324;2023-09-08T01:35:12;95068.94;;;20.06;nan
79461;BME280;68929;42.666;23.324;2023-09-08T01:37:44;95046.34;;;19.91;nan
79461;BME280;68929;42.666;23.324;2023-09-08T01:40:10;95067.34;;;20.05;nan
79461;BME280;68929;42.666;23.324;2023-09-08T01:42:37;95038.72;;;19.73;nan
79461;BME280;68929;42.666;23.324;2023-09-08T01:45:03;95049.97;;;19.70;nan
79461;BME280;68929;42.666;23.324;2023-09-08T01:47:29;95044.91;;;19.74;nan
79461;BME280;68929;42.666;23.324;2023-09-08T01:49:55;95064.44;;;19.69;nan
79461;BME280;68929;42.666;23.324;2023-09-08T01:52:20;95037.16;;;19.82;nan
79461;BME280;68929;42.666;23.324;2023-09-08T01:54:45;95064.25;;;19.86;nan
79461;BME280;68929;42.666;23.324;2023-09-08T01:57:11;95053.84;;;19.89;nan
79461;BME280;68929;42.666;23.324;2023-09-08T01:59:36;95053.22;;;19.72;nan
79461;BME280;68929;42.666;23.324;2023-09-08T02:02:05;95060.50;;;19.82;nan
79461;BME280;68929;42.666;23.324;2023-09-08T02:04:30;95050.56;;;19.77;nan
79461;BME280;68929;42.666;23.324;2023-09-08T02:06:56;95045.16;;;19.72;nan
79461;BME280;68929;42.666;23.324;2023-09-08T02:09:21;95051.34;;;19.78;nan
79461;BME280;68929;42.666;23.324;2023-09-08T02:11:47;95018.00;;;19.59;nan
79461;BME280;68929;42.666;23.324;2023-09-08T02:14:12;95018.78;;;19.54;nan
79461;BME280;68929;42.666;23.324;2023-09-08T02:16:38;95037.66;;;19.74;nan
79461;BME280;68929;42.666;23.324;2023-09-08T02:19:04;95038.16;;;19.66;nan
79461;BME280;68929;42.666;23.324;2023-09-08T02:21:30;95040.38;;;19.84;nan
79461;BME280;68929;42.666;23.324;2023-09-08T02:23:55;95027.44;;;19.66;nan
79461;BME280;68929;42.666;23.324;2023-09-08T02:26:21;95026.91;;;19.69;nan
79461;BME280;68929;42.666;23.324;2023-09-08T02:28:46;95024.75;;;19.66;nan
79461;BME280;68929;42.666;23.324;2023-09-08T02:31:11;95038.22;;;19.76;nan
79461;BME280;68929;42.666;23.324;2023-09-08T02:33:37;95006.53;;;19.73;nan
79461;BME280;68929;42.666;23.324;2023-09-08T02:36:04;95013.53;;;19.74;nan
79461;BME280;68929;42.666;23.324;2023-09-08T02:38:31;95024.56;;;19.88;nan
79461;BME280;68929;42.666;23.324;2023-09-08T02:40:57;95024.56;;;19.88;nan
79461;BME280;68929;42.666;23.324;2023-09-08T02:43:22;95036.44;;;19.97;nan
79461;BME280;68929;42.666;23.324;2023-09-08T02:45:47;95015.63;;;19.62;nan
79461;BME280;68929;42.666;23.324;2023-09-08T02:48:13;94991.75;;;19.61;nan
79461;BME280;68929;42.666;23.324;2023-09-08T02:50:38;95032.34;;;19.84;nan
79461;BME280;68929;42.666;23.324;2023-09-08T02:53:03;95024.72;;;19.61;nan
79461;BME280;68929;42.666;23.324;2023-09-08T02:55:30;95017.69;;;19.50;nan
79461;BME280;68929;42.666;23.324;2023-09-08T02:57:56;95001.31;;;19.47;nan
79461;BME280;68929;42.666;23.324;2023-09-08T03:00:21;95019.28;;;19.51;nan
79461;BME280;68929;42.666;23.324;2023-09-08T03:02:47;95021.88;;;19.36;nan
79461;BME280;68929;42.666;23.324;2023-09-08T03:05:12;95020.75;;;19.27;nan
79461;BME280;68929;42.666;23.324;2023-09-08T03:07:38;95035.06;;;19.11;nan
79461;BME280;68929;42.666;23.324;2023-09-08T03:10:05;95025.84;;;18.92;nan
79461;BME280;68929;42.666;23.324;2023-09-08T03:12:30;95022.69;;;19.00;nan
79461;BME280;68929;42.666;23.324;2023-09-08T03:14:56;95022.09;;;18.93;nan
79461;BME280;68929;42.666;23.324;2023-09-08T03:17:21;95025.69;;;19.08;nan
79461;BME280;68929;42.666;23.324;2023-09-08T03:19:47;95027.69;;;18.91;nan
79461;BME280;68929;42.666;23.324;2023-09-08T03:22:12;95001.59;;;18.77;nan
79461;BME280;68929;42.666;23.324;2023-09-08T03:24:38;95009.78;;;18.97;nan
79461;BME280;68929;42.666;23.324;2023-09-08T03:27:03;95012.44;;;18.92;nan
79461;BME280;68929;42.666;23.324;2023-09-08T03:29:29;95017.41;;;18.78;nan
79461;BME280;68929;42.666;23.324;2023-09-08T03:31:54;95041.31;;;18.85;nan
79461;BME280;68929;42.666;23.324;2023-09-08T03:34:19;95028.97;;;18.84;nan
79461;BME280;68929;42.666;23.324;2023-09-08T03:36:46;95024.34;;;18.74;nan
79461;BME280;68929;42.666;23.324;2023-09-08T03:39:13;95031.63;;;18.79;nan
79461;BME280;68929;42.666;23.324;2023-09-08T03:41:38;95038.56;;;18.80;nan
79461;BME280;68929;42.666;23.324;2023-09-08T03:44:04;95031.53;;;18.69;nan
79461;BME280;68929;42.666;23.324;2023-09-08T03:46:29;95038.69;;;18.63;nan
79461;BME280;68929;42.666;23.324;2023-09-08T03:48:55;95020.41;;;18.55;nan
79461;BME280;68929;42.666;23.324;2023-09-08T03:51:25;95035.78;;;18.65;nan
79461;BME280;68929;42.666;23.324;2023-09-08T03:53:51;95015.31;;;18.54;nan
79461;BME280;68929;42.666;23.324;2023-09-08T03:56:16;95035.78;;;18.65;nan
79461;BME280;68929;42.666;23.324;2023-09-08T03:58:42;95042.72;;;18.66;nan
79461;BME280;68929;42.666;23.324;2023-09-08T04:01:07;95032.94;;;18.76;nan
79461;BME280;68929;42.666;23.324;2023-09-08T04:03:32;95026.97;;;18.69;nan
79461;BME280;68929;42.666;23.324;2023-09-08T04:05:58;95029.31;;;18.61;nan
79461;BME280;68929;42.666;23.324;2023-09-08T04:08:23;95033.94;;;18.70;nan
79461;BME280;68929;42.666;23.324;2023-09-08T04:10:49;95024.63;;;18.78;nan
79461;BME280;68929;42.666;23.324;2023-09-08T04:13:15;95045.94;;;18.94;nan
79461;BME280;68929;42.666;23.324;2023-09-08T04:15:40;95014.94;;;18.72;nan
79461;BME280;68929;42.666;23.324;2023-09-08T04:18:05;95037.88;;;18.94;nan
79461;BME280;68929;42.666;23.324;2023-09-08T04:20:31;95038.91;;;18.88;nan
79461;BME280;68929;42.666;23.324;2023-09-08T04:22:56;95019.13;;;18.94;nan
79461;BME280;68929;42.666;23.324;2023-09-08T04:25:22;95025.44;;;18.78;nan
79461;BME280;68929;42.666;23.324;2023-09-08T04:27:47;95048.66;;;18.99;nan
79461;BME280;68929;42.666;23.324;2023-09-08T04:30:13;95045.72;;;19.01;nan
79461;BME280;68929;42.666;23.324;2023-09-08T04:32:38;95042.41;;;18.89;nan
79461;BME280;68929;42.666;23.324;2023-09-08T04:35:05;95032.72;;;18.83;nan
79461;BME280;68929;42.666;23.324;2023-09-08T04:37:30;95038.16;;;18.93;nan
79461;BME280;68929;42.666;23.324;2023-09-08T04:39:56;95046.59;;;19.11;nan
79461;BME280;68929;42.666;23.324;2023-09-08T04:42:21;95033.22;;;18.80;nan
79461;BME280;68929;42.666;23.324;2023-09-08T04:44:48;95032.31;;;18.96;nan
79461;BME280;68929;42.666;23.324;2023-09-08T04:47:14;95039.31;;;19.02;nan
79461;BME280;68929;42.666;23.324;2023-09-08T04:49:39;95058.22;;;19.22;nan
79461;BME280;68929;42.666;23.324;2023-09-08T04:52:05;95041.03;;;19.18;nan
79461;BME280;68929;42.666;23.324;2023-09-08T04:54:30;95046.41;;;19.18;nan
79461;BME280;68929;42.666;23.324;2023-09-08T04:56:57;95038.03;;;19.09;nan
79461;BME280;68929;42.666;23.324;2023-09-08T04:59:22;95053.38;;;19.19;nan
79461;BME280;68929;42.666;23.324;2023-09-08T05:01:49;95042.06;;;19.12;nan
79461;BME280;68929;42.666;23.324;2023-09-08T05:04:17;95055.97;;;19.09;nan
79461;BME280;68929;42.666;23.324;2023-09-08T05:06:42;95050.94;;;19.17;nan
79461;BME280;68929;42.666;23.324;2023-09-08T05:09:08;95061.94;;;19.16;nan
79461;BME280;68929;42.666;23.324;2023-09-08T05:11:33;95040.56;;;19.26;nan
79461;BME280;68929;42.666;23.324;2023-09-08T05:14:02;95045.97;;;19.31;nan
79461;BME280;68929;42.666;23.324;2023-09-08T05:16:27;95027.13;;;19.21;nan
79461;BME280;68929;42.666;23.324;2023-09-08T05:19:05;95033.94;;;19.34;nan
79461;BME280;68929;42.666;23.324;2023-09-08T05:21:31;95029.69;;;19.38;nan
79461;BME280;68929;42.666;23.324;2023-09-08T05:23:57;95060.34;;;19.57;nan
79461;BME280;68929;42.666;23.324;2023-09-08T05:26:22;95062.84;;;19.68;nan
79461;BME280;68929;42.666;23.324;2023-09-08T05:28:48;95047.84;;;19.72;nan
79461;BME280;68929;42.666;23.324;2023-09-08T05:31:13;95041.91;;;19.65;nan
79461;BME280;68929;42.666;23.324;2023-09-08T05:33:39;95045.00;;;19.94;nan
79461;BME280;68929;42.666;23.324;2023-09-08T05:36:04;95054.69;;;20.00;nan
79461;BME280;68929;42.666;23.324;2023-09-08T05:38:30;95059.34;;;20.20;nan
79461;BME280;68929;42.666;23.324;2023-09-08T05:40:55;95042.38;;;20.09;nan
79461;BME280;68929;42.666;23.324;2023-09-08T05:43:21;95059.28;;;20.10;nan
79461;BME280;68929;42.666;23.324;2023-09-08T05:45:46;95049.16;;;20.22;nan
79461;BME280;68929;42.666;23.324;2023-09-08T05:48:12;95047.56;;;20.26;nan
79461;BME280;68929;42.666;23.324;2023-09-08T05:50:38;95064.81;;;20.40;nan
79461;BME280;68929;42.666;23.324;2023-09-08T05:53:03;95072.34;;;20.48;nan
79461;BME280;68929;42.666;23.324;2023-09-08T05:55:29;95053.50;;;20.33;nan
79461;BME280;68929;42.666;23.324;2023-09-08T05:57:55;95072.31;;;20.38;nan
79461;BME280;68929;42.666;23.324;2023-09-08T06:00:20;95070.72;;;20.47;nan
79461;BME280;68929;42.666;23.324;2023-09-08T06:02:46;95054.59;;;20.37;nan
79461;BME280;68929;42.666;23.324;2023-09-08T06:05:11;95065.34;;;20.42;nan
79461;BME280;68929;42.666;23.324;2023-09-08T06:07:37;95062.66;;;20.42;nan
79461;BME280;68929;42.666;23.324;2023-09-08T06:10:03;95070.75;;;20.57;nan
79461;BME280;68929;42.666;23.324;2023-09-08T06:12:29;95075.09;;;20.73;nan
79461;BME280;68929;42.666;23.324;2023-09-08T06:14:58;95071.34;;;20.84;nan
79461;BME280;68929;42.666;23.324;2023-09-08T06:17:24;95065.47;;;20.92;nan
79461;BME280;68929;42.666;23.324;2023-09-08T06:19:49;95067.09;;;21.08;nan
79461;BME280;68929;42.666;23.324;2023-09-08T06:22:15;95077.31;;;21.11;nan
79461;BME280;68929;42.666;23.324;2023-09-08T06:24:40;95067.91;;;21.14;nan
79461;BME280;68929;42.666;23.324;2023-09-08T06:27:06;95067.09;;;21.08;nan
79461;BME280;68929;42.666;23.324;2023-09-08T06:29:32;95073.81;;;21.16;nan
79461;BME280;68929;42.666;23.324;2023-09-08T06:31:57;95081.34;;;21.14;nan
79461;BME280;68929;42.666;23.324;2023-09-08T06:34:23;95079.75;;;21.23;nan
79461;BME280;68929;42.666;23.324;2023-09-08T06:36:49;95087.00;;;21.37;nan
79461;BME280;68929;42.666;23.324;2023-09-08T06:39:14;95093.97;;;21.43;nan
79461;BME280;68929;42.666;23.324;2023-09-08T06:41:40;95088.63;;;21.48;nan
79461;BME280;68929;42.666;23.324;2023-09-08T06:44:05;95088.03;;;21.62;nan
79461;BME280;68929;42.666;23.324;2023-09-08T06:46:31;95073.00;;;21.51;nan
79461;BME280;68929;42.666;23.324;2023-09-08T06:48:56;95083.19;;;21.69;nan
79461;BME280;68929;42.666;23.324;2023-09-08T06:51:24;95088.00;;;21.72;nan
79461;BME280;68929;42.666;23.324;2023-09-08T06:53:56;95075.13;;;21.54;nan
79461;BME280;68929;42.666;23.324;2023-09-08T06:56:22;95094.50;;;21.86;nan
79461;BME280;68929;42.666;23.324;2023-09-08T06:58:48;95059.00;;;21.59;nan
79461;BME280;68929;42.666;23.324;2023-09-08T07:01:13;95074.31;;;21.83;nan
79461;BME280;68929;42.666;23.324;2023-09-08T07:03:38;95083.22;;;21.84;nan
79461;BME280;68929;42.666;23.324;2023-09-08T07:06:04;95097.38;;;22.14;nan
79461;BME280;68929;42.666;23.324;2023-09-08T07:08:29;95092.81;;;22.15;nan
79461;BME280;68929;42.666;23.324;2023-09-08T07:11:04;95073.38;;;22.23;nan
79461;BME280;68929;42.666;23.324;2023-09-08T07:13:29;95100.16;;;22.53;nan
79461;BME280;68929;42.666;23.324;2023-09-08T07:15:55;95079.44;;;22.54;nan
79461;BME280;68929;42.666;23.324;2023-09-08T07:18:25;95088.91;;;22.46;nan
79461;BME280;68929;42.666;23.324;2023-09-08T07:20:51;95083.00;;;22.44;nan
79461;BME280;68929;42.666;23.324;2023-09-08T07:23:17;95090.59;;;22.27;nan
79461;BME280;68929;42.666;23.324;2023-09-08T07:25:47;95087.34;;;22.35;nan
79461;BME280;68929;42.666;23.324;2023-09-08T07:28:13;95064.97;;;22.35;nan
79461;BME280;68929;42.666;23.324;2023-09-08T07:30:50;95062.97;;;22.55;nan
79461;BME280;68929;42.666;23.324;2023-09-08T07:33:16;95079.16;;;22.60;nan
79461;BME280;68929;42.666;23.324;2023-09-08T07:35:42;95077.97;;;22.81;nan
79461;BME280;68929;42.666;23.324;2023-09-08T07:38:07;95080.09;;;22.84;nan
79461;BME280;68929;42.666;23.324;2023-09-08T07:40:33;95066.56;;;22.94;nan
79461;BME280;68929;42.666;23.324;2023-09-08T07:43:08;95080.41;;;23.22;nan
79461;BME280;68929;42.666;23.324;2023-09-08T07:45:33;95075.00;;;23.22;nan
79461;BME280;68929;42.666;23.324;2023-09-08T07:47:59;95081.66;;;23.29;nan
79461;BME280;68929;42.666;23.324;2023-09-08T07:50:26;95073.88;;;23.28;nan
79461;BME280;68929;42.666;23.324;2023-09-08T07:52:53;95074.41;;;23.25;nan
79461;BME280;68929;42.666;23.324;2023-09-08T07:55:19;95077.50;;;23.47;nan
79461;BME280;68929;42.666;23.324;2023-09-08T07:57:49;95055.34;;;23.50;nan
79461;BME280;68929;42.666;23.324;2023-09-08T08:00:15;95069.31;;;23.23;nan
79461;BME280;68929;42.666;23.324;2023-09-08T08:02:55;95067.09;;;23.64;nan
79461;BME280;68929;42.666;23.324;2023-09-08T08:05:21;95068.66;;;23.70;nan
79461;BME280;68929;42.666;23.324;2023-09-08T08:07:46;95072.88;;;23.81;nan
79461;BME280;68929;42.666;23.324;2023-09-08T08:10:21;95050.91;;;23.64;nan
79461;BME280;68929;42.666;23.324;2023-09-08T08:12:46;95053.63;;;23.88;nan
79461;BME280;68929;42.666;23.324;2023-09-08T08:15:11;95051.34;;;23.76;nan
79461;BME280;68929;42.666;23.324;2023-09-08T08:17:38;95066.03;;;24.17;nan
79461;BME280;68929;42.666;23.324;2023-09-08T08:20:05;95050.66;;;24.36;nan
79461;BME280;68929;42.666;23.324;2023-09-08T08:22:33;95062.66;;;24.49;nan
79461;BME280;68929;42.666;23.324;2023-09-08T08:24:58;95036.44;;;24.49;nan
79461;BME280;68929;42.666;23.324;2023-09-08T08:27:24;95069.38;;;24.70;nan
79461;BME280;68929;42.666;23.324;2023-09-08T08:29:49;95071.81;;;24.72;nan
79461;BME280;68929;42.666;23.324;2023-09-08T08:32:16;95049.94;;;24.49;nan
79461;BME280;68929;42.666;23.324;2023-09-08T08:34:42;95071.25;;;24.75;nan
79461;BME280;68929;42.666;23.324;2023-09-08T08:37:10;95042.91;;;24.91;nan
79461;BME280;68929;42.666;23.324;2023-09-08T08:39:35;95059.56;;;24.79;nan
79461;BME280;68929;42.666;23.324;2023-09-08T08:42:08;95038.78;;;25.12;nan
79461;BME280;68929;42.666;23.324;2023-09-08T08:44:34;95041.13;;;25.00;nan
79461;BME280;68929;42.666;23.324;2023-09-08T08:47:02;95036.53;;;25.00;nan
79461;BME280;68929;42.666;23.324;2023-09-08T08:49:29;95043.63;;;24.96;nan
79461;BME280;68929;42.666;23.324;2023-09-08T08:51:59;95049.47;;;25.22;nan
79461;BME280;68929;42.666;23.324;2023-09-08T08:54:29;95029.72;;;24.66;nan
79461;BME280;68929;42.666;23.324;2023-09-08T08:56:55;95053.41;;;25.11;nan
79461;BME280;68929;42.666;23.324;2023-09-08T08:59:31;95030.59;;;25.17;nan
79461;BME280;68929;42.666;23.324;2023-09-08T09:01:58;95039.56;;;24.99;nan
79461;BME280;68929;42.666;23.324;2023-09-08T09:04:27;95049.03;;;25.15;nan
79461;BME280;68929;42.666;23.324;2023-09-08T09:06:53;95047.09;;;25.53;nan
79461;BME280;68929;42.666;23.324;2023-09-08T09:09:20;95047.78;;;25.45;nan
79461;BME280;68929;42.666;23.324;2023-09-08T09:11:45;95037.28;;;25.38;nan
79461;BME280;68929;42.666;23.324;2023-09-08T09:14:11;95032.09;;;24.91;nan
79461;BME280;68929;42.666;23.324;2023-09-08T09:16:47;95046.38;;;24.73;nan
79461;BME280;68929;42.666;23.324;2023-09-08T09:19:21;95033.53;;;24.65;nan
79461;BME280;68929;42.666;23.324;2023-09-08T09:21:53;95036.16;;;24.70;nan
79461;BME280;68929;42.666;23.324;2023-09-08T09:24:37;95045.06;;;25.26;nan
79461;BME280;68929;42.666;23.324;2023-09-08T09:27:27;95035.53;;;25.47;nan
79461;BME280;68929;42.666;23.324;2023-09-08T09:30:00;95036.22;;;25.20;nan
79461;BME280;68929;42.666;23.324;2023-09-08T09:32:25;95050.00;;;25.56;nan
79461;BME280;68929;42.666;23.324;2023-09-08T09:34:53;95033.66;;;25.29;nan
79461;BME280;68929;42.666;23.324;2023-09-08T09:37:20;95039.53;;;25.17;nan
79461;BME280;68929;42.666;23.324;2023-09-08T09:39:53;95049.88;;;25.29;nan
79461;BME280;68929;42.666;23.324;2023-09-08T09:42:22;95038.22;;;25.15;nan
79461;BME280;68929;42.666;23.324;2023-09-08T09:44:49;95040.31;;;25.18;nan
79461;BME280;68929;42.666;23.324;2023-09-08T09:47:21;95043.88;;;25.51;nan
79461;BME280;68929;42.666;23.324;2023-09-08T09:49:48;95023.75;;;25.70;nan
79461;BME280;68929;42.666;23.324;2023-09-08T09:52:21;95031.44;;;26.23;nan
79461;BME280;68929;42.666;23.324;2023-09-08T09:54:57;95005.53;;;26.17;nan
79461;BME280;68929;42.666;23.324;2023-09-08T09:57:23;95036.81;;;26.50;nan
79461;BME280;68929;42.666;23.324;2023-09-08T09:59:49;95029.72;;;26.27;nan
79461;BME280;68929;42.666;23.324;2023-09-08T10:02:17;95018.66;;;25.96;nan
79461;BME280;68929;42.666;23.324;2023-09-08T10:04:49;95024.44;;;25.62;nan
79461;BME280;68929;42.666;23.324;2023-09-08T10:07:16;95030.72;;;25.44;nan
79461;BME280;68929;42.666;23.324;2023-09-08T10:09:41;95022.78;;;25.48;nan
79461;BME280;68929;42.666;23.324;2023-09-08T10:12:13;94998.91;;;25.36;nan
79461;BME280;68929;42.666;23.324;2023-09-08T10:14:41;95012.31;;;25.73;nan
79461;BME280;68929;42.666;23.324;2023-09-08T10:17:18;95000.25;;;25.52;nan
79461;BME280;68929;42.666;23.324;2023-09-08T10:20:05;94999.81;;;25.45;nan
79461;BME280;68929;42.666;23.324;2023-09-08T10:22:42;95012.94;;;25.38;nan
79461;BME280;68929;42.666;23.324;2023-09-08T10:25:21;95014.84;;;24.87;nan
79461;BME280;68929;42.666;23.324;2023-09-08T10:27:47;95006.94;;;25.41;nan
79461;BME280;68929;42.666;23.324;2023-09-08T10:30:22;94985.78;;;25.43;nan
79461;BME280;68929;42.666;23.324;2023-09-08T10:32:49;95001.00;;;25.39;nan
79461;BME280;68929;42.666;23.324;2023-09-08T10:35:15;94985.69;;;25.16;nan
79461;BME280;68929;42.666;23.324;2023-09-08T10:37:47;95017.88;;;24.61;nan
79461;BME280;68929;42.666;23.324;2023-09-08T10:40:25;95010.25;;;24.26;nan
79461;BME280;68929;42.666;23.324;2023-09-08T10:43:15;94996.41;;;24.51;nan
79461;BME280;68929;42.666;23.324;2023-09-08T10:45:42;95001.94;;;24.41;nan
79461;BME280;68929;42.666;23.324;2023-09-08T10:48:14;94999.19;;;25.80;nan
79461;BME280;68929;42.666;23.324;2023-09-08T10:50:41;94992.19;;;27.27;nan
79461;BME280;68929;42.666;23.324;2023-09-08T10:53:17;95001.47;;;27.26;nan
79461;BME280;68929;42.666;23.324;2023-09-08T10:55:52;95000.97;;;27.46;nan
79461;BME280;68929;42.666;23.324;2023-09-08T10:58:35;94995.81;;;26.65;nan
79461;BME280;68929;42.666;23.324;2023-09-08T11:01:04;95001.31;;;26.87;nan
79461;BME280;68929;42.666;23.324;2023-09-08T11:06:11;94983.53;;;27.69;nan
79461;BME280;68929;42.666;23.324;2023-09-08T11:08:46;94998.09;;;28.61;nan
79461;BME280;68929;42.666;23.324;2023-09-08T11:11:13;94992.56;;;27.56;nan
79461;BME280;68929;42.666;23.324;2023-09-08T11:13:39;94997.66;;;26.56;nan
79461;BME280;68929;42.666;23.324;2023-09-08T11:16:11;94977.63;;;26.02;nan
79461;BME280;68929;42.666;23.324;2023-09-08T11:18:36;94979.22;;;25.63;nan
79461;BME280;68929;42.666;23.324;2023-09-08T11:21:03;94976.53;;;26.80;nan
79461;BME280;68929;42.666;23.324;2023-09-08T11:23:32;94978.66;;;28.28;nan
79461;BME280;68929;42.666;23.324;2023-09-08T11:25:59;94969.22;;;28.25;nan
79461;BME280;68929;42.666;23.324;2023-09-08T11:28:33;94958.41;;;27.11;nan
79461;BME280;68929;42.666;23.324;2023-09-08T11:30:59;94983.19;;;26.60;nan
79461;BME280;68929;42.666;23.324;2023-09-08T11:33:25;94963.78;;;25.63;nan
79461;BME280;68929;42.666;23.324;2023-09-08T11:35:54;94964.78;;;25.67;nan
79461;BME280;68929;42.666;23.324;2023-09-08T11:38:36;94972.34;;;25.38;nan
79461;BME280;68929;42.666;23.324;2023-09-08T11:41:06;94977.78;;;25.52;nan
79461;BME280;68929;42.666;23.324;2023-09-08T11:43:31;94953.56;;;25.74;nan
79461;BME280;68929;42.666;23.324;2023-09-08T11:46:01;94945.03;;;27.15;nan
79461;BME280;68929;42.666;23.324;2023-09-08T11:48:35;94953.44;;;29.39;nan
79461;BME280;68929;42.666;23.324;2023-09-08T11:51:00;94959.84;;;29.08;nan
79461;BME280;68929;42.666;23.324;2023-09-08T11:53:27;94950.63;;;28.10;nan
79461;BME280;68929;42.666;23.324;2023-09-08T11:55:52;94934.94;;;27.59;nan
79461;BME280;68929;42.666;23.324;2023-09-08T11:58:18;94953.66;;;27.17;nan
79461;BME280;68929;42.666;23.324;2023-09-08T12:00:49;94935.59;;;27.12;nan
79461;BME280;68929;42.666;23.324;2023-09-08T12:03:15;94961.63;;;29.30;nan
79461;BME280;68929;42.666;23.324;2023-09-08T12:05:51;94952.41;;;30.65;nan
79461;BME280;68929;42.666;23.324;2023-09-08T12:08:17;94940.25;;;31.04;nan
79461;BME280;68929;42.666;23.324;2023-09-08T12:10:47;94942.94;;;31.45;nan
79461;BME280;68929;42.666;23.324;2023-09-08T12:13:12;94945.72;;;30.33;nan
79461;BME280;68929;42.666;23.324;2023-09-08T12:15:43;94952.38;;;29.69;nan
79461;BME280;68929;42.666;23.324;2023-09-08T12:18:13;94952.44;;;30.86;nan
79461;BME280;68929;42.666;23.324;2023-09-08T12:20:45;94948.97;;;30.76;nan
79461;BME280;68929;42.666;23.324;2023-09-08T12:23:17;94940.91;;;31.54;nan
79461;BME280;68929;42.666;23.324;2023-09-08T12:25:51;94923.34;;;31.43;nan
79461;BME280;68929;42.666;23.324;2023-09-08T12:28:19;94937.38;;;32.10;nan
79461;BME280;68929;42.666;23.324;2023-09-08T12:30:45;94916.72;;;32.89;nan
79461;BME280;68929;42.666;23.324;2023-09-08T12:33:10;94917.59;;;33.33;nan
79461;BME280;68929;42.666;23.324;2023-09-08T12:35:47;94925.97;;;33.24;nan
79461;BME280;68929;42.666;23.324;2023-09-08T12:38:18;94916.50;;;32.94;nan
79461;BME280;68929;42.666;23.324;2023-09-08T12:40:43;94899.38;;;33.83;nan
79461;BME280;68929;42.666;23.324;2023-09-08T12:43:09;94908.84;;;33.27;nan
79461;BME280;68929;42.666;23.324;2023-09-08T12:45:42;94910.53;;;33.04;nan
79461;BME280;68929;42.666;23.324;2023-09-08T12:48:09;94914.88;;;32.93;nan
79461;BME280;68929;42.666;23.324;2023-09-08T12:50:37;94897.59;;;32.25;nan
79461;BME280;68929;42.666;23.324;2023-09-08T12:53:02;94892.44;;;32.23;nan
79461;BME280;68929;42.666;23.324;2023-09-08T12:55:29;94908.94;;;33.31;nan
79461;BME280;68929;42.666;23.324;2023-09-08T12:58:04;94905.91;;;34.26;nan
79461;BME280;68929;42.666;23.324;2023-09-08T13:00:29;94908.31;;;34.12;nan
79461;BME280;68929;42.666;23.324;2023-09-08T13:02:55;94893.22;;;33.43;nan
79461;BME280;68929;42.666;23.324;2023-09-08T13:05:20;94907.00;;;33.03;nan
79461;BME280;68929;42.666;23.324;2023-09-08T13:07:45;94908.56;;;33.75;nan
79461;BME280;68929;42.666;23.324;2023-09-08T13:10:11;94893.97;;;32.73;nan
79461;BME280;68929;42.666;23.324;2023-09-08T13:12:37;94898.22;;;29.76;nan
79461;BME280;68929;42.666;23.324;2023-09-08T13:15:02;94890.59;;;28.63;nan
79461;BME280;68929;42.666;23.324;2023-09-08T13:17:28;94906.75;;;27.86;nan